Stations météo

Publicité
Lus-La-Croix-Haute, France (7587): Température de l'air & dewpoint: 15.10.2017 10:00:00 - 21.10.2017 10:00:00 (CEST)Lus-La-Croix-Haute, France (7587): Vitesse du vent & gusts: 15.10.2017 10:00:00 - 21.10.2017 10:00:00 (CEST)Lus-La-Croix-Haute, France (7587): Direction du vent: 15.10.2017 10:00:00 - 21.10.2017 10:00:00 (CEST)Lus-La-Croix-Haute, France (7587): Quantités de précipitations: 15.10.2017 10:00:00 - 21.10.2017 10:00:00 (CEST)
Date & Time tt [°C] td [°C] ff [km/h] ff [knt] fx [km/h] fx [knt] dd rr [mm]
21.10.2017 10:00:00 - - - - - - - -
21.10.2017 09:00:00 10,4 8,2 2 1 8 4 ENE 0,0
21.10.2017 08:00:00 10,3 7,7 4 2 9 5 ESE -
21.10.2017 07:00:00 11,3 8,3 4 2 9 5 N 0,0
21.10.2017 06:00:00 12,3 8,4 4 2 11 6 NNW 0,0
21.10.2017 05:00:00 12,9 8,6 2 1 15 8 NNW 0,0
21.10.2017 04:00:00 13,1 8,8 8 4 18 10 S 0,0
21.10.2017 03:00:00 13,0 8,5 8 4 22 12 S 0,0
21.10.2017 02:00:00 13,3 8,4 8 4 22 12 S -
21.10.2017 01:00:00 12,2 7,7 4 2 13 7 W 0,0
21.10.2017 00:00:00 12,2 7,5 4 2 13 7 ENE 0,0
20.10.2017 23:00:00 12,4 7,7 4 2 11 6 SE 0,0
20.10.2017 22:00:00 11,2 7,1 2 1 5 3 NNE 0,0
20.10.2017 21:00:00 11,6 6,7 2 1 8 4 NW 0,0
20.10.2017 20:00:00 12,7 6,9 4 2 11 6 N -
20.10.2017 19:00:00 14,8 6,6 4 2 16 9 SW 0,0
20.10.2017 18:00:00 16,2 6,9 8 4 24 13 SSW 0,0
20.10.2017 17:00:00 17,2 7,0 11 6 28 15 S 0,0
20.10.2017 16:00:00 18,2 7,0 15 8 31 17 SSW 0,0
20.10.2017 15:00:00 18,0 8,0 15 8 26 14 SSW 0,0
20.10.2017 14:00:00 17,1 8,0 9 5 28 15 S -
20.10.2017 13:00:00 15,9 5,8 18 10 35 19 SSW 0,0
20.10.2017 12:00:00 18,2 5,7 15 8 29 16 S 0,0
20.10.2017 11:00:00 15,2 1,7 9 5 21 11 SSW 0,0
20.10.2017 10:00:00 8,4 1,8 4 2 8 4 N 0,0
20.10.2017 09:00:00 4,9 1,0 4 2 8 4 SSE 0,0
20.10.2017 08:00:00 3,1 -0,5 4 2 13 7 NW -
20.10.2017 07:00:00 3,3 -0,5 4 2 9 5 N 0,0
20.10.2017 06:00:00 3,9 -0,1 4 2 11 6 SE 0,0
20.10.2017 05:00:00 3,8 0,1 4 2 11 6 E 0,0
20.10.2017 04:00:00 3,2 -0,3 5 3 15 8 SE 0,0
20.10.2017 03:00:00 4,0 -0,2 4 2 9 5 ENE 0,0
20.10.2017 02:00:00 5,0 0,4 4 2 9 5 N -
20.10.2017 01:00:00 7,0 1,1 2 1 9 5 NE 0,0
20.10.2017 00:00:00 8,4 1,1 4 2 11 6 NW 0,0
19.10.2017 23:00:00 11,5 1,1 5 3 15 8 NNE 0,0
19.10.2017 22:00:00 12,8 2,3 4 2 18 10 NE 0,0
19.10.2017 21:00:00 12,3 2,2 9 5 22 12 SE 0,0
19.10.2017 20:00:00 13,2 1,5 9 5 29 16 SSE -
19.10.2017 19:00:00 15,5 1,2 15 8 31 17 SSE 0,0
19.10.2017 18:00:00 17,0 0,6 11 6 41 22 S 0,0
19.10.2017 17:00:00 20,1 1,0 15 8 39 21 S 0,0
19.10.2017 16:00:00 20,1 1,5 15 8 39 21 S 0,0
19.10.2017 15:00:00 20,5 0,3 13 7 44 24 S 0,0
19.10.2017 14:00:00 20,5 1,4 13 7 44 24 S -
19.10.2017 13:00:00 18,8 1,3 18 10 48 26 S 0,0
19.10.2017 12:00:00 19,0 1,9 24 13 59 32 SE 0,0
19.10.2017 11:00:00 18,0 2,3 16 9 42 23 S 0,0
19.10.2017 10:00:00 14,8 2,3 8 4 22 12 SSW 0,0
19.10.2017 09:00:00 13,1 1,7 9 5 29 16 SSW 0,0
19.10.2017 08:00:00 12,9 1,5 11 6 28 15 S -
19.10.2017 07:00:00 13,2 2,1 9 5 24 13 S 0,0
19.10.2017 06:00:00 13,0 1,6 5 3 34 18 SE 0,0
19.10.2017 05:00:00 14,5 1,7 18 10 35 19 S 0,0
19.10.2017 04:00:00 13,2 3,0 11 6 28 15 S 0,0
19.10.2017 03:00:00 11,8 3,3 8 4 24 13 S 0,0
19.10.2017 02:00:00 12,6 3,5 11 6 29 16 S -
19.10.2017 01:00:00 13,6 3,4 15 8 29 16 S 0,0
19.10.2017 00:00:00 12,8 3,7 11 6 24 13 SSW 0,0
18.10.2017 23:00:00 13,5 3,8 8 4 29 16 S 0,0
18.10.2017 22:00:00 14,1 4,1 18 10 34 18 SSW 0,0
18.10.2017 21:00:00 15,2 3,0 15 8 46 25 S 0,0
18.10.2017 20:00:00 15,1 2,9 21 11 31 17 S -
18.10.2017 19:00:00 15,6 2,7 16 9 42 23 S 0,0
18.10.2017 18:00:00 16,5 2,8 15 8 50 27 S 0,0
18.10.2017 17:00:00 17,1 1,5 21 11 59 32 SSE 0,0
18.10.2017 16:00:00 17,3 1,7 28 15 50 27 SSE 0,0
18.10.2017 15:00:00 18,7 1,2 21 11 48 26 S 0,0
18.10.2017 14:00:00 19,6 2,9 22 12 63 34 SSE -
18.10.2017 13:00:00 19,5 2,4 24 13 55 30 SSE 0,0
18.10.2017 12:00:00 18,4 2,2 16 9 34 18 S 0,0
18.10.2017 11:00:00 15,9 -0,4 18 10 35 19 SSW 0,0
18.10.2017 10:00:00 12,6 1,0 4 2 11 6 E 0,0
18.10.2017 09:00:00 7,4 -0,3 4 2 15 8 ENE 0,0
18.10.2017 08:00:00 7,9 -1,1 4 2 13 7 WNW -
18.10.2017 07:00:00 8,9 -1,0 4 2 13 7 N 0,0
18.10.2017 06:00:00 9,3 -1,2 4 2 22 12 SE 0,0
18.10.2017 05:00:00 10,2 -0,9 5 3 22 12 S 0,0
18.10.2017 04:00:00 10,5 -0,3 8 4 24 13 S 0,0
18.10.2017 03:00:00 11,0 1,0 11 6 29 16 S 0,0
18.10.2017 02:00:00 11,0 0,7 4 2 28 15 ENE -
18.10.2017 01:00:00 12,0 -0,2 11 6 28 15 SSW 0,0
18.10.2017 00:00:00 12,0 0,4 9 5 22 12 SSW 0,0
17.10.2017 23:00:00 11,9 1,2 4 2 22 12 ESE 0,0
17.10.2017 22:00:00 13,0 1,0 9 5 21 11 S 0,0
17.10.2017 21:00:00 14,0 -0,9 11 6 29 16 SSE 0,0
17.10.2017 20:00:00 15,7 -1,8 15 8 35 19 SSE -
17.10.2017 19:00:00 17,5 -2,2 16 9 44 24 SSE 0,0
17.10.2017 18:00:00 19,1 -2,5 26 14 44 24 S 0,0
17.10.2017 17:00:00 21,7 -3,7 15 8 41 22 S 0,0
17.10.2017 16:00:00 22,7 -3,6 13 7 39 21 S 0,0
17.10.2017 15:00:00 22,3 -3,9 16 9 44 24 SSW 0,0
17.10.2017 14:00:00 22,1 -4,1 16 9 39 21 SSW -
17.10.2017 13:00:00 20,8 -3,0 22 12 37 20 S 0,0
17.10.2017 12:00:00 18,5 1,0 4 2 11 6 SE 0,0
17.10.2017 11:00:00 11,9 2,6 2 1 8 4 SW 0,0
17.10.2017 10:00:00 5,9 0,4 2 1 5 3 S 0,0
17.10.2017 09:00:00 1,9 -1,5 0 0 4 2 NNE 0,0
17.10.2017 08:00:00 1,4 -1,8 2 1 4 2 SE -
17.10.2017 07:00:00 1,9 -1,7 0 0 4 2 SE 0,0
17.10.2017 06:00:00 2,3 -1,5 2 1 4 2 SSW 0,0
17.10.2017 05:00:00 2,9 -1,5 2 1 4 2 SSE 0,0
17.10.2017 04:00:00 3,1 -1,5 2 1 5 3 SE 0,0
17.10.2017 03:00:00 3,7 -1,3 2 1 4 2 S 0,0
17.10.2017 02:00:00 4,4 -1,2 4 2 5 3 N -
17.10.2017 01:00:00 4,6 -1,2 2 1 4 2 SSE 0,0
17.10.2017 00:00:00 5,5 -1,2 2 1 8 4 SE 0,0
16.10.2017 23:00:00 6,6 -1,3 2 1 8 4 W 0,0
16.10.2017 22:00:00 7,9 -1,9 2 1 8 4 SW 0,0
16.10.2017 21:00:00 9,6 -0,6 4 2 8 4 SE 0,0
16.10.2017 20:00:00 12,0 0,1 2 1 9 5 SE -
16.10.2017 19:00:00 15,9 -0,8 4 2 18 10 WNW 0,0
16.10.2017 18:00:00 20,4 -2,0 11 6 29 16 SSW 0,0
16.10.2017 17:00:00 22,8 -2,0 13 7 35 19 SSW 0,0
16.10.2017 16:00:00 22,9 -2,7 18 10 37 20 SSW 0,0
16.10.2017 15:00:00 23,0 -1,2 18 10 35 19 S 0,0
16.10.2017 14:00:00 22,9 -2,0 13 7 34 18 SSW -
16.10.2017 13:00:00 21,4 0,5 21 11 35 19 S 0,0
16.10.2017 12:00:00 19,2 3,8 5 3 22 12 SE 0,0
16.10.2017 11:00:00 12,4 5,8 2 1 8 4 WSW 0,0
16.10.2017 10:00:00 6,8 6,5 2 1 4 2 N 0,0
16.10.2017 09:00:00 3,3 3,0 4 2 4 2 N 0,0
16.10.2017 08:00:00 3,0 2,4 2 1 5 3 NNW -
16.10.2017 07:00:00 3,5 3,1 0 0 2 1 NNW 0,0
16.10.2017 06:00:00 3,6 2,9 2 1 4 2 SSE 0,0
16.10.2017 05:00:00 4,1 3,2 2 1 4 2 SSE 0,0
16.10.2017 04:00:00 4,5 3,3 0 0 4 2 NNW 0,0
16.10.2017 03:00:00 5,2 3,7 2 1 4 2 SSW 0,0
16.10.2017 02:00:00 5,7 3,9 0 0 5 3 N -
16.10.2017 01:00:00 6,7 4,0 2 1 4 2 S 0,0
16.10.2017 00:00:00 7,4 4,2 2 1 5 3 NW 0,0
15.10.2017 23:00:00 8,7 4,3 2 1 5 3 N 0,0
15.10.2017 22:00:00 9,4 4,2 4 2 5 3 NW 0,0
15.10.2017 21:00:00 11,0 4,4 2 1 9 5 ENE 0,0
15.10.2017 20:00:00 13,8 4,1 2 1 9 5 ENE -
15.10.2017 19:00:00 17,2 3,8 4 2 24 13 N 0,0
15.10.2017 18:00:00 20,7 3,4 11 6 22 12 S 0,0
15.10.2017 17:00:00 22,7 3,2 15 8 22 12 S 0,0
15.10.2017 16:00:00 23,1 2,0 13 7 26 14 S 0,0
15.10.2017 15:00:00 23,3 1,0 13 7 28 15 SSW 0,0
15.10.2017 14:00:00 22,5 1,5 15 8 28 15 S -
15.10.2017 13:00:00 21,8 2,0 13 7 28 15 SSW 0,0
15.10.2017 12:00:00 19,0 5,4 4 2 15 8 WSW 0,0
15.10.2017 11:00:00 12,8 7,5 4 2 8 4 S 0,0
15.10.2017 10:00:00 6,9 6,8 2 1 5 3 SSE 0,0

tt = Température de l'air
td = dewpoint
ff = Vitesse du vent
fx = gusts
dd = Direction du vent
rr = Quantités de précipitations

stations d'obs. à proximité